sensor_id;sensor_type;location;lat;lon;timestamp;pressure;altitude;pressure_sealevel;temperature;humidity
59608;BME280;45426;44.726;10.390;2023-03-20T00:00:09;100938.47;;;12.27;100.00
59608;BME280;45426;44.726;10.390;2023-03-20T00:02:40;100931.19;;;11.80;100.00
59608;BME280;45426;44.726;10.390;2023-03-20T00:05:25;100926.22;;;12.12;100.00
59608;BME280;45426;44.726;10.390;2023-03-20T00:07:51;100925.97;;;12.04;100.00
59608;BME280;45426;44.726;10.390;2023-03-20T00:10:18;100920.88;;;12.24;100.00
59608;BME280;45426;44.726;10.390;2023-03-20T00:12:45;100926.28;;;12.33;100.00
59608;BME280;45426;44.726;10.390;2023-03-20T00:15:28;100921.69;;;12.46;100.00
59608;BME280;45426;44.726;10.390;2023-03-20T00:17:54;100926.75;;;12.35;100.00
59608;BME280;45426;44.726;10.390;2023-03-20T00:20:19;100917.09;;;12.16;100.00
59608;BME280;45426;44.726;10.390;2023-03-20T00:22:45;100927.97;;;11.87;100.00
59608;BME280;45426;44.726;10.390;2023-03-20T00:25:15;100930.25;;;12.14;100.00
59608;BME280;45426;44.726;10.390;2023-03-20T00:27:42;100923.63;;;11.85;100.00
59608;BME280;45426;44.726;10.390;2023-03-20T00:30:28;100929.22;;;11.98;100.00
59608;BME280;45426;44.726;10.390;2023-03-20T00:32:56;100923.28;;;11.96;100.00
59608;BME280;45426;44.726;10.390;2023-03-20T00:35:31;100925.91;;;12.13;100.00
59608;BME280;45426;44.726;10.390;2023-03-20T00:37:57;100927.09;;;12.03;100.00
59608;BME280;45426;44.726;10.390;2023-03-20T00:40:26;100922.97;;;11.89;100.00
59608;BME280;45426;44.726;10.390;2023-03-20T00:43:00;100927.50;;;12.14;100.00
59608;BME280;45426;44.726;10.390;2023-03-20T00:45:27;100920.75;;;11.91;100.00
59608;BME280;45426;44.726;10.390;2023-03-20T00:47:53;100914.97;;;12.22;100.00
59608;BME280;45426;44.726;10.390;2023-03-20T00:50:22;100910.13;;;12.28;100.00
59608;BME280;45426;44.726;10.390;2023-03-20T00:52:48;100914.31;;;12.46;100.00
59608;BME280;45426;44.726;10.390;2023-03-20T00:55:14;100914.69;;;12.36;100.00
59608;BME280;45426;44.726;10.390;2023-03-20T00:57:54;100911.91;;;12.45;100.00
59608;BME280;45426;44.726;10.390;2023-03-20T01:00:40;100907.63;;;12.14;100.00
59608;BME280;45426;44.726;10.390;2023-03-20T01:03:12;100903.78;;;12.36;100.00
59608;BME280;45426;44.726;10.390;2023-03-20T01:05:38;100898.84;;;12.08;100.00
59608;BME280;45426;44.726;10.390;2023-03-20T01:08:15;100890.78;;;12.20;100.00
59608;BME280;45426;44.726;10.390;2023-03-20T01:10:42;100892.09;;;11.93;100.00
59608;BME280;45426;44.726;10.390;2023-03-20T01:13:16;100893.88;;;11.80;100.00
59608;BME280;45426;44.726;10.390;2023-03-20T01:15:43;100890.63;;;11.87;100.00
59608;BME280;45426;44.726;10.390;2023-03-20T01:18:12;100890.97;;;11.85;100.00
59608;BME280;45426;44.726;10.390;2023-03-20T01:20:37;100892.38;;;12.21;100.00
59608;BME280;45426;44.726;10.390;2023-03-20T01:23:03;100888.06;;;12.20;100.00
59608;BME280;45426;44.726;10.390;2023-03-20T01:25:29;100888.25;;;12.15;100.00
59608;BME280;45426;44.726;10.390;2023-03-20T01:27:55;100886.66;;;12.14;100.00
59608;BME280;45426;44.726;10.390;2023-03-20T01:30:28;100895.00;;;12.09;100.00
59608;BME280;45426;44.726;10.390;2023-03-20T01:32:54;100889.56;;;12.09;100.00
59608;BME280;45426;44.726;10.390;2023-03-20T01:35:22;100890.09;;;12.02;100.00
59608;BME280;45426;44.726;10.390;2023-03-20T01:37:49;100885.13;;;12.04;100.00
59608;BME280;45426;44.726;10.390;2023-03-20T01:42:45;100892.81;;;11.73;100.00
59608;BME280;45426;44.726;10.390;2023-03-20T01:45:20;100881.84;;;11.52;100.00
59608;BME280;45426;44.726;10.390;2023-03-20T01:47:46;100889.84;;;11.57;100.00
59608;BME280;45426;44.726;10.390;2023-03-20T01:50:30;100881.22;;;11.84;100.00
59608;BME280;45426;44.726;10.390;2023-03-20T01:53:07;100881.34;;;11.58;100.00
59608;BME280;45426;44.726;10.390;2023-03-20T01:55:34;100881.63;;;11.65;100.00
59608;BME280;45426;44.726;10.390;2023-03-20T01:58:04;100884.22;;;11.62;100.00
59608;BME280;45426;44.726;10.390;2023-03-20T02:00:31;100878.88;;;12.04;100.00
59608;BME280;45426;44.726;10.390;2023-03-20T02:02:57;100877.09;;;11.78;100.00
59608;BME280;45426;44.726;10.390;2023-03-20T02:05:23;100879.81;;;11.78;100.00
59608;BME280;45426;44.726;10.390;2023-03-20T02:08:00;100881.84;;;11.90;100.00
59608;BME280;45426;44.726;10.390;2023-03-20T02:10:29;100887.44;;;11.94;100.00
59608;BME280;45426;44.726;10.390;2023-03-20T02:12:55;100873.97;;;11.97;100.00
59608;BME280;45426;44.726;10.390;2023-03-20T02:15:21;100876.28;;;11.78;100.00
59608;BME280;45426;44.726;10.390;2023-03-20T02:17:46;100873.63;;;11.69;100.00
59608;BME280;45426;44.726;10.390;2023-03-20T02:20:32;100867.13;;;11.53;100.00
59608;BME280;45426;44.726;10.390;2023-03-20T02:42:50;100870.66;;;11.83;100.00
59608;BME280;45426;44.726;10.390;2023-03-20T02:45:30;100870.22;;;11.72;100.00
59608;BME280;45426;44.726;10.390;2023-03-20T02:48:14;100885.00;;;11.62;100.00
59608;BME280;45426;44.726;10.390;2023-03-20T02:51:02;100872.03;;;11.89;100.00
59608;BME280;45426;44.726;10.390;2023-03-20T02:58:50;100857.81;;;11.83;100.00
59608;BME280;45426;44.726;10.390;2023-03-20T03:01:20;100858.28;;;11.94;100.00
59608;BME280;45426;44.726;10.390;2023-03-20T03:03:57;100854.34;;;12.04;100.00
59608;BME280;45426;44.726;10.390;2023-03-20T03:06:31;100855.72;;;11.89;100.00
59608;BME280;45426;44.726;10.390;2023-03-20T03:09:02;100857.50;;;11.85;100.00
59608;BME280;45426;44.726;10.390;2023-03-20T03:11:33;100855.09;;;11.83;100.00
59608;BME280;45426;44.726;10.390;2023-03-20T03:14:01;100863.56;;;11.61;100.00
59608;BME280;45426;44.726;10.390;2023-03-20T03:16:29;100870.09;;;11.30;100.00
59608;BME280;45426;44.726;10.390;2023-03-20T03:21:28;100855.56;;;11.94;100.00
59608;BME280;45426;44.726;10.390;2023-03-20T03:23:55;100861.97;;;11.60;100.00
59608;BME280;45426;44.726;10.390;2023-03-20T03:26:26;100863.66;;;11.43;100.00
59608;BME280;45426;44.726;10.390;2023-03-20T03:28:59;100863.31;;;11.45;100.00
59608;BME280;45426;44.726;10.390;2023-03-20T03:31:26;100864.84;;;11.63;100.00
59608;BME280;45426;44.726;10.390;2023-03-20T03:33:55;100859.13;;;11.56;100.00
59608;BME280;45426;44.726;10.390;2023-03-20T03:39:14;100857.03;;;11.83;100.00
59608;BME280;45426;44.726;10.390;2023-03-20T03:41:48;100857.81;;;11.83;100.00
59608;BME280;45426;44.726;10.390;2023-03-20T03:47:03;100852.63;;;11.99;100.00
59608;BME280;45426;44.726;10.390;2023-03-20T03:49:34;100851.16;;;11.72;100.00
59608;BME280;45426;44.726;10.390;2023-03-20T03:52:05;100852.13;;;11.46;100.00
59608;BME280;45426;44.726;10.390;2023-03-20T03:54:40;100850.69;;;11.70;100.00
59608;BME280;45426;44.726;10.390;2023-03-20T03:57:07;100843.94;;;11.76;100.00
59608;BME280;45426;44.726;10.390;2023-03-20T03:59:41;100857.44;;;12.23;100.00
59608;BME280;45426;44.726;10.390;2023-03-20T04:02:09;100851.84;;;11.99;100.00
59608;BME280;45426;44.726;10.390;2023-03-20T04:04:39;100850.59;;;11.88;100.00
59608;BME280;45426;44.726;10.390;2023-03-20T04:07:06;100853.28;;;12.17;100.00
59608;BME280;45426;44.726;10.390;2023-03-20T04:09:32;100843.72;;;12.11;100.00
59608;BME280;45426;44.726;10.390;2023-03-20T04:11:57;100846.25;;;11.65;100.00
59608;BME280;45426;44.726;10.390;2023-03-20T04:14:23;100850.81;;;11.82;100.00
59608;BME280;45426;44.726;10.390;2023-03-20T04:16:49;100856.72;;;11.84;100.00
59608;BME280;45426;44.726;10.390;2023-03-20T04:19:14;100857.63;;;12.18;100.00
59608;BME280;45426;44.726;10.390;2023-03-20T04:21:40;100850.78;;;12.12;100.00
59608;BME280;45426;44.726;10.390;2023-03-20T04:24:05;100846.06;;;12.00;100.00
59608;BME280;45426;44.726;10.390;2023-03-20T04:26:31;100854.34;;;11.74;100.00
59608;BME280;45426;44.726;10.390;2023-03-20T04:28:56;100852.78;;;12.03;100.00
59608;BME280;45426;44.726;10.390;2023-03-20T04:31:22;100856.41;;;12.28;100.00
59608;BME280;45426;44.726;10.390;2023-03-20T04:33:48;100857.94;;;11.66;100.00
59608;BME280;45426;44.726;10.390;2023-03-20T04:36:13;100862.66;;;11.78;100.00
59608;BME280;45426;44.726;10.390;2023-03-20T04:38:39;100862.00;;;11.90;100.00
59608;BME280;45426;44.726;10.390;2023-03-20T04:41:05;100862.19;;;11.76;100.00
59608;BME280;45426;44.726;10.390;2023-03-20T04:43:32;100862.47;;;12.13;100.00
59608;BME280;45426;44.726;10.390;2023-03-20T04:45:57;100869.44;;;12.22;100.00
59608;BME280;45426;44.726;10.390;2023-03-20T04:48:23;100860.94;;;12.24;100.00
59608;BME280;45426;44.726;10.390;2023-03-20T04:50:48;100869.13;;;12.24;100.00
59608;BME280;45426;44.726;10.390;2023-03-20T04:53:16;100863.94;;;12.10;100.00
59608;BME280;45426;44.726;10.390;2023-03-20T04:55:42;100864.53;;;12.16;100.00
59608;BME280;45426;44.726;10.390;2023-03-20T04:58:08;100861.09;;;12.07;100.00
59608;BME280;45426;44.726;10.390;2023-03-20T05:00:33;100855.69;;;12.19;100.00
59608;BME280;45426;44.726;10.390;2023-03-20T05:02:59;100857.53;;;12.06;100.00
59608;BME280;45426;44.726;10.390;2023-03-20T05:05:24;100864.50;;;11.95;100.00
59608;BME280;45426;44.726;10.390;2023-03-20T05:07:50;100857.63;;;11.89;100.00
59608;BME280;45426;44.726;10.390;2023-03-20T05:10:17;100863.81;;;12.07;100.00
59608;BME280;45426;44.726;10.390;2023-03-20T05:12:42;100864.88;;;12.14;100.00
59608;BME280;45426;44.726;10.390;2023-03-20T05:15:08;100878.59;;;11.67;100.00
59608;BME280;45426;44.726;10.390;2023-03-20T05:17:34;100873.34;;;11.62;100.00
59608;BME280;45426;44.726;10.390;2023-03-20T05:20:00;100872.44;;;11.79;100.00
59608;BME280;45426;44.726;10.390;2023-03-20T05:22:25;100870.78;;;11.95;100.00
59608;BME280;45426;44.726;10.390;2023-03-20T05:24:50;100879.13;;;11.90;100.00
59608;BME280;45426;44.726;10.390;2023-03-20T05:27:16;100882.31;;;11.92;100.00
59608;BME280;45426;44.726;10.390;2023-03-20T05:29:41;100890.16;;;11.85;100.00
59608;BME280;45426;44.726;10.390;2023-03-20T05:32:07;100880.28;;;12.10;100.00
59608;BME280;45426;44.726;10.390;2023-03-20T05:34:32;100897.41;;;12.11;100.00
59608;BME280;45426;44.726;10.390;2023-03-20T05:36:58;100885.84;;;11.54;100.00
59608;BME280;45426;44.726;10.390;2023-03-20T05:39:23;100894.53;;;11.77;100.00
59608;BME280;45426;44.726;10.390;2023-03-20T05:41:48;100895.53;;;12.02;100.00
59608;BME280;45426;44.726;10.390;2023-03-20T05:44:14;100899.25;;;11.98;100.00
59608;BME280;45426;44.726;10.390;2023-03-20T05:46:40;100895.75;;;11.97;100.00
59608;BME280;45426;44.726;10.390;2023-03-20T05:49:06;100895.47;;;11.81;100.00
59608;BME280;45426;44.726;10.390;2023-03-20T05:51:32;100893.59;;;11.73;100.00
59608;BME280;45426;44.726;10.390;2023-03-20T05:53:57;100898.13;;;11.99;100.00
59608;BME280;45426;44.726;10.390;2023-03-20T05:56:22;100899.09;;;11.26;100.00
59608;BME280;45426;44.726;10.390;2023-03-20T05:58:48;100911.97;;;11.76;100.00
59608;BME280;45426;44.726;10.390;2023-03-20T06:01:13;100911.25;;;11.97;100.00
59608;BME280;45426;44.726;10.390;2023-03-20T06:03:42;100911.78;;;11.90;100.00
59608;BME280;45426;44.726;10.390;2023-03-20T06:06:08;100913.97;;;11.67;100.00
59608;BME280;45426;44.726;10.390;2023-03-20T06:08:33;100918.41;;;12.10;100.00
59608;BME280;45426;44.726;10.390;2023-03-20T06:11:01;100922.06;;;12.14;100.00
59608;BME280;45426;44.726;10.390;2023-03-20T06:13:26;100910.25;;;12.10;100.00
59608;BME280;45426;44.726;10.390;2023-03-20T06:15:52;100922.59;;;12.29;100.00
59608;BME280;45426;44.726;10.390;2023-03-20T06:18:17;100917.50;;;12.27;100.00
59608;BME280;45426;44.726;10.390;2023-03-20T06:20:42;100916.22;;;12.24;100.00
59608;BME280;45426;44.726;10.390;2023-03-20T06:23:08;100917.34;;;12.23;100.00
59608;BME280;45426;44.726;10.390;2023-03-20T06:25:33;100915.88;;;12.05;100.00
59608;BME280;45426;44.726;10.390;2023-03-20T06:27:59;100913.34;;;12.21;100.00
59608;BME280;45426;44.726;10.390;2023-03-20T06:30:24;100910.84;;;12.16;100.00
59608;BME280;45426;44.726;10.390;2023-03-20T06:32:50;100912.88;;;12.19;100.00
59608;BME280;45426;44.726;10.390;2023-03-20T06:35:15;100915.56;;;12.07;100.00
59608;BME280;45426;44.726;10.390;2023-03-20T06:37:42;100923.31;;;12.38;100.00
59608;BME280;45426;44.726;10.390;2023-03-20T06:40:08;100918.44;;;12.31;100.00
59608;BME280;45426;44.726;10.390;2023-03-20T06:42:34;100917.16;;;12.50;100.00
59608;BME280;45426;44.726;10.390;2023-03-20T06:44:59;100932.28;;;12.17;100.00
59608;BME280;45426;44.726;10.390;2023-03-20T06:47:25;100933.97;;;12.31;100.00
59608;BME280;45426;44.726;10.390;2023-03-20T06:49:51;100928.34;;;12.06;100.00
59608;BME280;45426;44.726;10.390;2023-03-20T06:52:18;100946.44;;;11.72;100.00
59608;BME280;45426;44.726;10.390;2023-03-20T06:54:44;100949.19;;;12.02;100.00
59608;BME280;45426;44.726;10.390;2023-03-20T06:57:09;100941.03;;;12.02;100.00
59608;BME280;45426;44.726;10.390;2023-03-20T06:59:35;100939.53;;;12.34;100.00
59608;BME280;45426;44.726;10.390;2023-03-20T07:02:01;100942.88;;;12.40;100.00
59608;BME280;45426;44.726;10.390;2023-03-20T07:04:27;100943.16;;;12.68;100.00
59608;BME280;45426;44.726;10.390;2023-03-20T07:06:52;100953.38;;;12.50;100.00
59608;BME280;45426;44.726;10.390;2023-03-20T07:09:17;100948.47;;;12.65;100.00
59608;BME280;45426;44.726;10.390;2023-03-20T07:11:43;100957.16;;;12.58;100.00
59608;BME280;45426;44.726;10.390;2023-03-20T07:14:10;100952.72;;;12.53;100.00
59608;BME280;45426;44.726;10.390;2023-03-20T07:16:35;100956.56;;;12.52;100.00
59608;BME280;45426;44.726;10.390;2023-03-20T07:19:01;100959.44;;;12.35;100.00
59608;BME280;45426;44.726;10.390;2023-03-20T07:21:27;100960.41;;;12.30;100.00
59608;BME280;45426;44.726;10.390;2023-03-20T07:23:52;100957.44;;;12.44;100.00
59608;BME280;45426;44.726;10.390;2023-03-20T07:26:18;100955.63;;;12.69;100.00
59608;BME280;45426;44.726;10.390;2023-03-20T07:28:43;100974.72;;;12.48;100.00
59608;BME280;45426;44.726;10.390;2023-03-20T07:31:24;100975.47;;;12.57;100.00
59608;BME280;45426;44.726;10.390;2023-03-20T07:33:49;100974.41;;;12.71;100.00
59608;BME280;45426;44.726;10.390;2023-03-20T07:36:15;100970.88;;;12.70;100.00
59608;BME280;45426;44.726;10.390;2023-03-20T07:38:41;100978.34;;;12.10;100.00
59608;BME280;45426;44.726;10.390;2023-03-20T07:41:06;100987.63;;;12.09;100.00
59608;BME280;45426;44.726;10.390;2023-03-20T07:43:32;100982.47;;;12.16;100.00
59608;BME280;45426;44.726;10.390;2023-03-20T07:46:01;100981.22;;;12.35;100.00
59608;BME280;45426;44.726;10.390;2023-03-20T07:48:26;100979.03;;;12.49;100.00
59608;BME280;45426;44.726;10.390;2023-03-20T07:50:52;100979.28;;;12.35;100.00
59608;BME280;45426;44.726;10.390;2023-03-20T07:53:17;100982.16;;;12.60;100.00
59608;BME280;45426;44.726;10.390;2023-03-20T07:55:43;100974.66;;;12.78;100.00
59608;BME280;45426;44.726;10.390;2023-03-20T07:58:09;100987.09;;;12.67;100.00
59608;BME280;45426;44.726;10.390;2023-03-20T08:00:34;100983.09;;;12.64;100.00
59608;BME280;45426;44.726;10.390;2023-03-20T08:03:00;100989.13;;;12.70;100.00
59608;BME280;45426;44.726;10.390;2023-03-20T08:05:25;100988.63;;;12.76;100.00
59608;BME280;45426;44.726;10.390;2023-03-20T08:07:51;100987.16;;;12.79;100.00
59608;BME280;45426;44.726;10.390;2023-03-20T08:10:17;100999.63;;;12.38;100.00
59608;BME280;45426;44.726;10.390;2023-03-20T08:12:42;100991.13;;;12.60;100.00
59608;BME280;45426;44.726;10.390;2023-03-20T08:15:08;100993.66;;;12.66;100.00
59608;BME280;45426;44.726;10.390;2023-03-20T08:17:34;100995.41;;;12.91;100.00
59608;BME280;45426;44.726;10.390;2023-03-20T08:19:59;100989.19;;;13.03;100.00
59608;BME280;45426;44.726;10.390;2023-03-20T08:22:25;100996.47;;;12.78;100.00
59608;BME280;45426;44.726;10.390;2023-03-20T08:24:50;100994.00;;;12.85;100.00
59608;BME280;45426;44.726;10.390;2023-03-20T08:27:15;100992.75;;;13.04;100.00
59608;BME280;45426;44.726;10.390;2023-03-20T08:29:41;100995.41;;;12.91;100.00
59608;BME280;45426;44.726;10.390;2023-03-20T08:32:07;100989.00;;;13.08;100.00
59608;BME280;45426;44.726;10.390;2023-03-20T08:34:32;100989.88;;;13.33;100.00
59608;BME280;45426;44.726;10.390;2023-03-20T08:36:58;100996.22;;;13.25;100.00
59608;BME280;45426;44.726;10.390;2023-03-20T08:39:23;100997.78;;;12.72;100.00
59608;BME280;45426;44.726;10.390;2023-03-20T08:41:49;100999.03;;;12.95;100.00
59608;BME280;45426;44.726;10.390;2023-03-20T08:44:14;100992.75;;;13.04;100.00
59608;BME280;45426;44.726;10.390;2023-03-20T08:46:40;100998.34;;;13.19;100.00
59608;BME280;45426;44.726;10.390;2023-03-20T08:49:07;100988.69;;;13.22;100.00
59608;BME280;45426;44.726;10.390;2023-03-20T08:51:33;100995.41;;;12.91;100.00
59608;BME280;45426;44.726;10.390;2023-03-20T08:53:58;100996.22;;;13.58;100.00
59608;BME280;45426;44.726;10.390;2023-03-20T08:56:24;100996.47;;;13.90;100.00
59608;BME280;45426;44.726;10.390;2023-03-20T08:58:50;100979.00;;;14.97;100.00
59608;BME280;45426;44.726;10.390;2023-03-20T09:01:17;100973.50;;;15.25;100.00
59608;BME280;45426;44.726;10.390;2023-03-20T09:03:43;100974.56;;;14.92;100.00
59608;BME280;45426;44.726;10.390;2023-03-20T09:06:09;100981.28;;;14.54;100.00
59608;BME280;45426;44.726;10.390;2023-03-20T09:08:35;100984.03;;;14.67;100.00
59608;BME280;45426;44.726;10.390;2023-03-20T09:11:01;100980.88;;;14.28;100.00
59608;BME280;45426;44.726;10.390;2023-03-20T09:13:26;100980.75;;;14.36;100.00
59608;BME280;45426;44.726;10.390;2023-03-20T09:15:52;100995.88;;;14.46;100.00
59608;BME280;45426;44.726;10.390;2023-03-20T09:18:18;100991.31;;;14.38;100.00
59608;BME280;45426;44.726;10.390;2023-03-20T09:20:44;100983.91;;;14.63;100.00
59608;BME280;45426;44.726;10.390;2023-03-20T09:23:11;100990.81;;;14.85;100.00
59608;BME280;45426;44.726;10.390;2023-03-20T09:25:36;100988.66;;;14.79;100.00
59608;BME280;45426;44.726;10.390;2023-03-20T09:28:01;100978.84;;;15.34;100.00
59608;BME280;45426;44.726;10.390;2023-03-20T09:30:28;100994.19;;;14.94;100.00
59608;BME280;45426;44.726;10.390;2023-03-20T09:32:53;100990.81;;;15.13;100.00
59608;BME280;45426;44.726;10.390;2023-03-20T09:35:19;100982.53;;;14.98;100.00
59608;BME280;45426;44.726;10.390;2023-03-20T09:37:45;100977.56;;;15.76;100.00
59608;BME280;45426;44.726;10.390;2023-03-20T09:48:44;100986.25;;;15.49;100.00
59608;BME280;45426;44.726;10.390;2023-03-20T09:53:55;100984.25;;;15.02;100.00
59608;BME280;45426;44.726;10.390;2023-03-20T09:56:25;100987.41;;;14.76;100.00
59608;BME280;45426;44.726;10.390;2023-03-20T09:58:55;100981.22;;;15.07;100.00
59608;BME280;45426;44.726;10.390;2023-03-20T10:01:29;100989.84;;;14.93;100.00
59608;BME280;45426;44.726;10.390;2023-03-20T10:04:01;100990.41;;;14.59;100.00
59608;BME280;45426;44.726;10.390;2023-03-20T10:06:32;100996.25;;;14.57;100.00
59608;BME280;45426;44.726;10.390;2023-03-20T10:08:57;100986.44;;;14.97;100.00
59608;BME280;45426;44.726;10.390;2023-03-20T10:14:00;100996.75;;;14.75;100.00
59608;BME280;45426;44.726;10.390;2023-03-20T10:16:47;100995.34;;;14.81;100.00
59608;BME280;45426;44.726;10.390;2023-03-20T10:19:26;100995.84;;;14.71;100.00
59608;BME280;45426;44.726;10.390;2023-03-20T10:29:57;100986.34;;;14.28;100.00
59608;BME280;45426;44.726;10.390;2023-03-20T10:32:28;100983.63;;;15.53;100.00
59608;BME280;45426;44.726;10.390;2023-03-20T10:40:31;100968.72;;;15.98;100.00
59608;BME280;45426;44.726;10.390;2023-03-20T10:43:01;100962.63;;;15.89;100.00
59608;BME280;45426;44.726;10.390;2023-03-20T10:45:45;100966.09;;;16.21;100.00
59608;BME280;45426;44.726;10.390;2023-03-20T10:48:35;100959.91;;;16.24;100.00
59608;BME280;45426;44.726;10.390;2023-03-20T10:51:03;100949.03;;;16.28;100.00
59608;BME280;45426;44.726;10.390;2023-03-20T10:53:46;100942.69;;;17.02;100.00
59608;BME280;45426;44.726;10.390;2023-03-20T10:56:17;100948.19;;;17.68;100.00
59608;BME280;45426;44.726;10.390;2023-03-20T10:58:47;100946.19;;;18.78;100.00
59608;BME280;45426;44.726;10.390;2023-03-20T11:01:14;100939.34;;;18.31;100.00
59608;BME280;45426;44.726;10.390;2023-03-20T11:03:40;100941.03;;;17.40;100.00
59608;BME280;45426;44.726;10.390;2023-03-20T11:06:21;100926.88;;;16.76;100.00
59608;BME280;45426;44.726;10.390;2023-03-20T11:08:51;100930.53;;;17.22;100.00
59608;BME280;45426;44.726;10.390;2023-03-20T11:11:33;100937.97;;;17.91;100.00
59608;BME280;45426;44.726;10.390;2023-03-20T11:14:09;100936.41;;;17.44;100.00
59608;BME280;45426;44.726;10.390;2023-03-20T11:16:40;100932.44;;;18.78;100.00
59608;BME280;45426;44.726;10.390;2023-03-20T11:19:07;100935.69;;;17.47;100.00
59608;BME280;45426;44.726;10.390;2023-03-20T11:21:44;100935.50;;;16.94;100.00
59608;BME280;45426;44.726;10.390;2023-03-20T11:24:26;100932.38;;;17.38;100.00
59608;BME280;45426;44.726;10.390;2023-03-20T11:29:32;100924.00;;;15.94;100.00
59608;BME280;45426;44.726;10.390;2023-03-20T11:32:06;100925.81;;;16.06;100.00
59608;BME280;45426;44.726;10.390;2023-03-20T11:34:35;100916.41;;;15.40;100.00
59608;BME280;45426;44.726;10.390;2023-03-20T11:37:06;100922.91;;;15.19;100.00
59608;BME280;45426;44.726;10.390;2023-03-20T11:39:32;100915.00;;;15.62;100.00
59608;BME280;45426;44.726;10.390;2023-03-20T11:41:59;100912.59;;;15.28;100.00
59608;BME280;45426;44.726;10.390;2023-03-20T11:44:34;100914.75;;;16.38;100.00
59608;BME280;45426;44.726;10.390;2023-03-20T11:47:25;100904.72;;;15.90;100.00
59608;BME280;45426;44.726;10.390;2023-03-20T11:49:55;100903.00;;;16.76;100.00
59608;BME280;45426;44.726;10.390;2023-03-20T11:52:24;100894.13;;;16.63;100.00
59608;BME280;45426;44.726;10.390;2023-03-20T11:54:55;100899.44;;;15.82;100.00
59608;BME280;45426;44.726;10.390;2023-03-20T11:57:37;100902.09;;;16.14;100.00
59608;BME280;45426;44.726;10.390;2023-03-20T12:00:15;100898.41;;;16.06;100.00
59608;BME280;45426;44.726;10.390;2023-03-20T12:02:43;100897.69;;;16.09;100.00
59608;BME280;45426;44.726;10.390;2023-03-20T12:07:59;100891.41;;;15.41;100.00
59608;BME280;45426;44.726;10.390;2023-03-20T12:10:30;100884.75;;;15.90;100.00
59608;BME280;45426;44.726;10.390;2023-03-20T12:13:01;100882.41;;;15.57;100.00
59608;BME280;45426;44.726;10.390;2023-03-20T12:15:32;100887.34;;;15.51;100.00
59608;BME280;45426;44.726;10.390;2023-03-20T12:18:07;100880.44;;;15.57;100.00
59608;BME280;45426;44.726;10.390;2023-03-20T12:25:47;100871.69;;;16.58;100.00
59608;BME280;45426;44.726;10.390;2023-03-20T12:36:34;100863.00;;;16.75;100.00
59608;BME280;45426;44.726;10.390;2023-03-20T12:39:03;100859.69;;;15.56;100.00
59608;BME280;45426;44.726;10.390;2023-03-20T12:56:23;100842.50;;;16.49;100.00
59608;BME280;45426;44.726;10.390;2023-03-20T13:01:31;100839.97;;;15.66;100.00
59608;BME280;45426;44.726;10.390;2023-03-20T13:12:16;100841.03;;;17.18;100.00
59608;BME280;45426;44.726;10.390;2023-03-20T13:28:21;100834.16;;;16.03;100.00
59608;BME280;45426;44.726;10.390;2023-03-20T13:30:55;100834.09;;;16.00;100.00
59608;BME280;45426;44.726;10.390;2023-03-20T13:39:11;100827.50;;;15.85;100.00
59608;BME280;45426;44.726;10.390;2023-03-20T13:41:40;100824.84;;;16.08;100.00
59608;BME280;45426;44.726;10.390;2023-03-20T13:44:09;100814.94;;;17.04;100.00
59608;BME280;45426;44.726;10.390;2023-03-20T13:52:14;100816.63;;;16.27;100.00
59608;BME280;45426;44.726;10.390;2023-03-20T14:03:06;100813.00;;;18.49;100.00
59608;BME280;45426;44.726;10.390;2023-03-20T14:05:40;100814.84;;;18.04;100.00
59608;BME280;45426;44.726;10.390;2023-03-20T14:11:07;100811.81;;;17.06;100.00
59608;BME280;45426;44.726;10.390;2023-03-20T14:13:55;100810.25;;;18.15;100.00
59608;BME280;45426;44.726;10.390;2023-03-20T14:16:22;100806.41;;;18.95;100.00
59608;BME280;45426;44.726;10.390;2023-03-20T14:18:49;100812.50;;;18.06;100.00
59608;BME280;45426;44.726;10.390;2023-03-20T14:21:28;100812.16;;;18.45;100.00
59608;BME280;45426;44.726;10.390;2023-03-20T14:24:02;100802.03;;;18.53;100.00
59608;BME280;45426;44.726;10.390;2023-03-20T14:26:30;100810.75;;;17.91;100.00
59608;BME280;45426;44.726;10.390;2023-03-20T14:31:32;100811.25;;;18.00;100.00
59608;BME280;45426;44.726;10.390;2023-03-20T14:50:48;100798.00;;;16.79;100.00
59608;BME280;45426;44.726;10.390;2023-03-20T14:53:20;100804.84;;;17.12;100.00
59608;BME280;45426;44.726;10.390;2023-03-20T14:55:51;100806.41;;;17.10;100.00
59608;BME280;45426;44.726;10.390;2023-03-20T15:01:14;100796.84;;;16.80;100.00
59608;BME280;45426;44.726;10.390;2023-03-20T15:03:41;100805.44;;;16.79;100.00
59608;BME280;45426;44.726;10.390;2023-03-20T15:06:08;100810.34;;;16.27;100.00
59608;BME280;45426;44.726;10.390;2023-03-20T15:08:44;100812.31;;;16.46;100.00
59608;BME280;45426;44.726;10.390;2023-03-20T15:11:13;100804.59;;;16.13;100.00
59608;BME280;45426;44.726;10.390;2023-03-20T15:13:40;100810.94;;;16.17;100.00
59608;BME280;45426;44.726;10.390;2023-03-20T15:16:10;100811.63;;;16.53;100.00
59608;BME280;45426;44.726;10.390;2023-03-20T15:18:41;100818.41;;;16.59;100.00
59608;BME280;45426;44.726;10.390;2023-03-20T15:21:12;100809.41;;;16.19;100.00
59608;BME280;45426;44.726;10.390;2023-03-20T15:23:40;100814.69;;;16.28;100.00